createdAt,value
2023-05-09T00:00:46.499Z,13.17
2023-05-09T00:03:14.275Z,13.10
2023-05-09T00:05:41.816Z,12.93
2023-05-09T00:08:08.522Z,12.87
2023-05-09T00:10:35.129Z,12.96
2023-05-09T00:13:01.753Z,13.05
2023-05-09T00:15:28.756Z,13.14
2023-05-09T00:17:55.318Z,13.06
2023-05-09T00:20:22.058Z,12.86
2023-05-09T00:22:48.636Z,13.00
2023-05-09T00:25:15.336Z,13.08
2023-05-09T00:27:41.940Z,12.87
2023-05-09T00:30:09.060Z,12.80
2023-05-09T00:32:37.102Z,12.97
2023-05-09T00:35:05.210Z,12.87
2023-05-09T00:37:31.731Z,12.68
2023-05-09T00:39:58.199Z,12.96
2023-05-09T00:42:24.860Z,12.55
2023-05-09T00:44:51.367Z,12.67
2023-05-09T00:47:18.158Z,12.58
2023-05-09T00:49:44.766Z,12.52
2023-05-09T00:52:11.420Z,12.50
2023-05-09T00:54:38.039Z,12.82
2023-05-09T00:57:04.677Z,12.60
2023-05-09T00:59:31.367Z,12.30
2023-05-09T01:01:57.909Z,12.57
2023-05-09T01:04:24.856Z,12.09
2023-05-09T01:07:30.238Z,11.98
2023-05-09T01:10:12.001Z,12.20
2023-05-09T01:12:52.330Z,12.48
2023-05-09T01:15:32.666Z,12.54
2023-05-09T01:18:27.743Z,12.75
2023-05-09T01:21:07.616Z,12.68
2023-05-09T01:24:23.371Z,12.31
2023-05-09T01:27:13.068Z,12.49
2023-05-09T01:29:48.051Z,12.14
2023-05-09T01:32:22.773Z,12.60
2023-05-09T01:34:54.338Z,12.84
2023-05-09T01:37:30.591Z,12.61
2023-05-09T01:40:08.203Z,12.31
2023-05-09T01:42:45.390Z,12.46
2023-05-09T01:45:15.686Z,12.73
2023-05-09T01:47:44.654Z,12.92
2023-05-09T01:50:13.060Z,12.46
2023-05-09T01:52:43.336Z,12.49
2023-05-09T01:55:13.287Z,12.31
2023-05-09T01:57:43.009Z,12.55
2023-05-09T02:00:13.711Z,12.60
2023-05-09T02:02:41.400Z,12.51
2023-05-09T02:05:11.776Z,12.42
2023-05-09T02:07:41.995Z,12.76
2023-05-09T02:10:11.452Z,12.93
2023-05-09T02:12:38.752Z,12.49
2023-05-09T02:15:07.257Z,12.58
2023-05-09T02:17:33.749Z,12.49
2023-05-09T02:20:00.419Z,12.43
2023-05-09T02:22:28.289Z,12.56
2023-05-09T02:24:55.281Z,12.85
2023-05-09T02:27:22.699Z,12.65
2023-05-09T02:29:57.499Z,12.64
2023-05-09T02:32:31.600Z,12.48
2023-05-09T02:35:01.859Z,12.70
2023-05-09T02:37:29.257Z,12.98
2023-05-09T02:39:56.560Z,12.66
2023-05-09T02:42:28.694Z,12.41
2023-05-09T02:44:56.423Z,12.68
2023-05-09T02:47:23.422Z,12.52
2023-05-09T02:49:49.998Z,12.75
2023-05-09T02:52:16.599Z,12.35
2023-05-09T02:54:43.126Z,12.67
2023-05-09T02:57:09.734Z,12.88
2023-05-09T02:59:36.506Z,12.58
2023-05-09T03:02:03.060Z,12.88
2023-05-09T03:04:29.618Z,12.63
2023-05-09T03:06:56.218Z,12.43
2023-05-09T03:09:22.729Z,12.68
2023-05-09T03:11:50.421Z,12.77
2023-05-09T03:14:16.989Z,12.84
2023-05-09T03:16:43.512Z,12.82
2023-05-09T03:19:11.235Z,13.06
2023-05-09T03:21:37.787Z,13.17
2023-05-09T03:24:05.992Z,13.07
2023-05-09T03:26:32.491Z,13.10
2023-05-09T03:28:59.120Z,12.81
2023-05-09T03:31:35.644Z,12.66
2023-05-09T03:34:02.214Z,12.91
2023-05-09T03:36:28.882Z,12.95
2023-05-09T03:38:55.386Z,12.77
2023-05-09T03:41:26.708Z,12.63
2023-05-09T03:43:53.218Z,12.81
2023-05-09T03:46:19.748Z,12.92
2023-05-09T03:48:46.258Z,12.97
2023-05-09T03:51:12.779Z,12.76
2023-05-09T03:53:39.426Z,12.82
2023-05-09T03:56:09.594Z,12.98
2023-05-09T03:58:36.280Z,12.66
2023-05-09T04:01:05.883Z,12.79
2023-05-09T04:03:33.186Z,12.84
2023-05-09T04:06:00.179Z,13.05
2023-05-09T04:08:27.428Z,12.85
2023-05-09T04:10:54.013Z,12.82
2023-05-09T04:13:20.543Z,13.05
2023-05-09T04:15:47.081Z,13.07
2023-05-09T04:18:13.684Z,13.19
2023-05-09T04:20:40.354Z,12.79
2023-05-09T04:23:07.045Z,13.06
2023-05-09T04:25:34.444Z,13.25
2023-05-09T04:28:09.059Z,13.02
2023-05-09T04:30:35.575Z,13.08
2023-05-09T04:33:02.155Z,12.90
2023-05-09T04:35:28.596Z,12.99
2023-05-09T04:37:55.171Z,12.72
2023-05-09T04:40:21.692Z,13.06
2023-05-09T04:42:48.173Z,13.24
2023-05-09T04:45:16.911Z,12.81
2023-05-09T04:47:44.043Z,12.66
2023-05-09T04:50:11.186Z,12.59
2023-05-09T04:52:37.887Z,12.87
2023-05-09T04:55:04.775Z,13.06
2023-05-09T04:57:31.205Z,13.33
2023-05-09T04:59:57.804Z,13.22
2023-05-09T05:02:25.167Z,13.24
2023-05-09T05:04:56.105Z,13.22
2023-05-09T05:07:26.674Z,12.97
2023-05-09T05:09:53.134Z,13.25
2023-05-09T05:12:20.573Z,13.53
2023-05-09T05:14:47.074Z,13.10
2023-05-09T05:17:20.323Z,13.07
2023-05-09T05:19:49.443Z,12.99
2023-05-09T05:22:16.016Z,13.31
2023-05-09T05:24:46.624Z,13.20
2023-05-09T05:27:16.213Z,13.17
2023-05-09T05:29:42.727Z,13.51
2023-05-09T05:32:10.630Z,13.67
2023-05-09T05:34:39.304Z,13.82
2023-05-09T05:37:05.907Z,13.69
2023-05-09T05:39:32.465Z,13.45
2023-05-09T05:41:58.988Z,13.29
2023-05-09T05:44:25.454Z,13.45
2023-05-09T05:47:01.578Z,13.80
2023-05-09T05:49:30.121Z,13.78
2023-05-09T05:52:00.745Z,13.67
2023-05-09T05:54:27.246Z,13.73
2023-05-09T05:56:53.681Z,13.81
2023-05-09T05:59:20.099Z,13.66
2023-05-09T06:01:46.724Z,13.93
2023-05-09T06:04:13.343Z,13.68
2023-05-09T06:06:40.552Z,13.69
2023-05-09T06:09:07.080Z,13.82
2023-05-09T06:11:33.554Z,13.60
2023-05-09T06:14:00.143Z,13.78
2023-05-09T06:16:26.624Z,13.92
2023-05-09T06:18:55.730Z,13.97
2023-05-09T06:21:23.345Z,13.90
2023-05-09T06:24:01.994Z,14.09
2023-05-09T06:26:35.196Z,14.26
2023-05-09T06:29:01.908Z,14.22
2023-05-09T06:31:28.672Z,14.05
2023-05-09T06:33:55.342Z,14.04
2023-05-09T06:36:21.842Z,14.37
2023-05-09T06:38:48.356Z,14.55
2023-05-09T06:41:14.857Z,14.22
2023-05-09T06:43:41.415Z,14.45
2023-05-09T06:46:08.122Z,14.65
2023-05-09T06:48:34.674Z,15.07
2023-05-09T06:51:01.181Z,15.34
2023-05-09T06:53:27.650Z,15.59
2023-05-09T06:55:54.157Z,15.64
2023-05-09T06:58:21.454Z,15.99
2023-05-09T07:00:48.663Z,15.94
2023-05-09T07:03:15.828Z,15.93
2023-05-09T07:05:42.344Z,15.41
2023-05-09T07:08:08.825Z,15.85
2023-05-09T07:10:35.637Z,15.85
2023-05-09T07:13:02.258Z,15.92
2023-05-09T07:15:40.484Z,16.13
2023-05-09T07:18:09.320Z,16.31
2023-05-09T07:20:35.945Z,16.08
2023-05-09T07:23:05.833Z,16.55
2023-05-09T07:25:32.763Z,16.68
2023-05-09T07:27:59.250Z,16.89
2023-05-09T07:30:25.804Z,16.86
2023-05-09T07:32:52.859Z,16.58
2023-05-09T07:35:27.901Z,16.84
2023-05-09T07:37:57.864Z,16.73
2023-05-09T07:40:25.327Z,17.01
2023-05-09T07:42:54.067Z,17.22
2023-05-09T07:45:22.799Z,17.29
2023-05-09T07:47:50.916Z,17.47
2023-05-09T07:50:17.632Z,17.80
2023-05-09T07:52:47.037Z,17.73
2023-05-09T07:55:13.858Z,17.88
2023-05-09T07:57:40.975Z,17.73
2023-05-09T08:00:09.032Z,17.75
2023-05-09T08:02:36.126Z,17.97
2023-05-09T08:05:03.227Z,17.46
2023-05-09T08:07:29.891Z,17.44
2023-05-09T08:09:56.581Z,17.59
2023-05-09T08:12:23.367Z,17.84
2023-05-09T08:14:49.882Z,17.74
2023-05-09T08:17:19.254Z,17.84
2023-05-09T08:19:45.998Z,17.55
2023-05-09T08:22:20.655Z,17.83
2023-05-09T08:24:47.913Z,17.62
2023-05-09T08:27:15.719Z,17.86
2023-05-09T08:29:43.651Z,18.17
2023-05-09T08:32:10.237Z,17.75
2023-05-09T08:34:37.186Z,17.98
2023-05-09T08:37:04.911Z,18.03
2023-05-09T08:39:35.726Z,18.29
2023-05-09T08:42:04.706Z,18.40
2023-05-09T08:44:32.243Z,18.63
2023-05-09T08:47:02.577Z,19.09
2023-05-09T08:49:30.473Z,18.63
2023-05-09T08:51:57.789Z,18.17
2023-05-09T08:54:25.140Z,18.73
2023-05-09T08:56:52.241Z,18.56
2023-05-09T08:59:22.439Z,18.24
2023-05-09T09:01:49.968Z,18.14
2023-05-09T09:04:18.196Z,17.97
2023-05-09T09:06:46.619Z,18.15
2023-05-09T09:09:15.332Z,18.08
2023-05-09T09:11:44.492Z,18.36
2023-05-09T09:14:16.722Z,18.13
2023-05-09T09:16:48.867Z,18.07
2023-05-09T09:19:20.071Z,18.40
2023-05-09T09:21:49.761Z,18.28
2023-05-09T09:24:23.306Z,18.66
2023-05-09T09:26:51.794Z,18.84
2023-05-09T09:29:20.972Z,19.16
2023-05-09T09:31:57.376Z,18.80
2023-05-09T09:34:23.931Z,19.13
2023-05-09T09:36:50.904Z,18.75
2023-05-09T09:39:17.563Z,18.90
2023-05-09T09:41:45.227Z,18.93
2023-05-09T09:44:17.732Z,19.25
2023-05-09T09:46:50.755Z,19.28
2023-05-09T09:49:21.792Z,19.12
2023-05-09T09:51:55.663Z,19.22
2023-05-09T09:54:29.583Z,19.30
2023-05-09T09:56:56.604Z,19.17
2023-05-09T09:59:27.230Z,18.96
2023-05-09T10:01:59.300Z,19.00
2023-05-09T10:04:31.718Z,18.97
2023-05-09T10:07:06.169Z,18.85
2023-05-09T10:09:39.489Z,19.28
2023-05-09T10:12:08.776Z,19.14
2023-05-09T10:14:41.657Z,19.41
2023-05-09T10:17:14.027Z,19.17
2023-05-09T10:19:47.524Z,18.84
2023-05-09T10:22:19.249Z,18.82
2023-05-09T10:25:03.355Z,18.61
2023-05-09T10:27:35.652Z,18.58
2023-05-09T10:30:08.652Z,18.84
2023-05-09T10:32:50.493Z,18.69
2023-05-09T10:35:25.114Z,18.66
2023-05-09T10:37:57.634Z,18.97
2023-05-09T10:40:24.514Z,18.71
2023-05-09T10:42:57.825Z,18.98
2023-05-09T10:45:24.927Z,19.15
2023-05-09T10:47:53.849Z,18.96
2023-05-09T10:50:21.462Z,19.34
2023-05-09T10:53:04.914Z,19.34
2023-05-09T10:55:47.315Z,19.49
2023-05-09T10:58:23.440Z,19.72
2023-05-09T11:00:53.488Z,19.62
2023-05-09T11:03:21.628Z,19.25
2023-05-09T11:05:56.355Z,19.05
2023-05-09T11:08:34.390Z,19.02
2023-05-09T11:11:07.523Z,19.30
2023-05-09T11:13:38.349Z,19.00
2023-05-09T11:16:09.312Z,19.37
2023-05-09T11:18:55.612Z,19.61
2023-05-09T11:21:22.237Z,19.49
2023-05-09T11:23:49.720Z,19.60
2023-05-09T11:26:22.219Z,19.70
2023-05-09T11:28:54.405Z,20.20
2023-05-09T11:31:21.163Z,20.12
2023-05-09T11:33:55.112Z,19.96
2023-05-09T11:36:33.689Z,20.23
2023-05-09T11:39:03.081Z,20.27
2023-05-09T11:41:39.291Z,20.23
2023-05-09T11:44:14.445Z,20.38
2023-05-09T11:46:41.040Z,20.94
2023-05-09T11:49:09.540Z,20.96
2023-05-09T11:51:38.098Z,20.34
2023-05-09T11:54:07.475Z,20.64
2023-05-09T11:56:36.223Z,20.18
2023-05-09T11:59:02.770Z,19.72
2023-05-09T12:01:30.632Z,20.02
2023-05-09T12:03:59.331Z,19.76
2023-05-09T12:06:27.174Z,19.73
2023-05-09T12:09:00.012Z,19.48
2023-05-09T12:11:32.236Z,19.42
2023-05-09T12:14:01.272Z,20.14
2023-05-09T12:16:28.809Z,19.96
2023-05-09T12:18:55.348Z,19.82
2023-05-09T12:21:22.241Z,19.82
2023-05-09T12:23:51.787Z,20.03
2023-05-09T12:26:22.604Z,19.99
2023-05-09T12:28:50.706Z,20.00
2023-05-09T12:31:25.523Z,20.09
2023-05-09T12:33:52.294Z,20.43
2023-05-09T12:36:25.952Z,20.20
2023-05-09T12:38:55.251Z,20.44
2023-05-09T12:41:37.029Z,20.17
2023-05-09T12:44:06.237Z,20.41
2023-05-09T12:46:40.112Z,20.23
2023-05-09T12:49:22.313Z,20.09
2023-05-09T12:51:50.502Z,20.28
2023-05-09T12:54:29.714Z,20.28
2023-05-09T12:56:59.589Z,20.13
2023-05-09T12:59:28.929Z,20.29
2023-05-09T13:02:00.018Z,20.02
2023-05-09T13:04:28.981Z,19.75
2023-05-09T13:06:59.831Z,19.70
2023-05-09T13:09:27.889Z,19.58
2023-05-09T13:11:54.480Z,19.67
2023-05-09T13:14:23.273Z,19.48
2023-05-09T13:16:51.042Z,19.53
2023-05-09T13:19:17.482Z,19.86
2023-05-09T13:21:44.014Z,19.35
2023-05-09T13:24:10.511Z,19.38
2023-05-09T13:26:37.109Z,19.26
2023-05-09T13:29:03.644Z,19.33
2023-05-09T13:31:31.596Z,19.23
2023-05-09T13:33:58.555Z,19.07
2023-05-09T13:36:25.569Z,19.10
2023-05-09T13:38:52.068Z,19.35
2023-05-09T13:41:23.590Z,19.21
2023-05-09T13:43:51.200Z,18.96
2023-05-09T13:46:17.748Z,19.14
2023-05-09T13:48:44.818Z,19.08
2023-05-09T13:51:11.450Z,19.04
2023-05-09T13:53:39.245Z,18.87
2023-05-09T13:56:09.447Z,18.87
2023-05-09T13:58:36.371Z,18.99
2023-05-09T14:01:03.158Z,18.97
2023-05-09T14:03:29.787Z,18.71
2023-05-09T14:05:58.766Z,18.72
2023-05-09T14:08:27.011Z,18.76
2023-05-09T14:10:53.589Z,18.73
2023-05-09T14:13:21.985Z,18.64
2023-05-09T14:15:51.995Z,18.89
2023-05-09T14:18:20.755Z,18.70
2023-05-09T14:20:47.861Z,18.63
2023-05-09T14:23:14.401Z,18.55
2023-05-09T14:25:40.932Z,18.74
2023-05-09T14:28:09.249Z,18.63
2023-05-09T14:30:36.758Z,18.60
2023-05-09T14:33:03.269Z,18.53
2023-05-09T14:35:32.732Z,18.60
2023-05-09T14:38:01.268Z,18.54
2023-05-09T14:40:32.051Z,18.33
2023-05-09T14:43:03.279Z,18.36
2023-05-09T14:45:32.721Z,18.44
2023-05-09T14:48:00.396Z,18.46
2023-05-09T14:50:26.917Z,18.37
2023-05-09T14:52:54.195Z,18.38
2023-05-09T14:55:24.373Z,18.54
2023-05-09T14:57:51.710Z,18.20
2023-05-09T15:00:21.851Z,18.05
2023-05-09T15:02:51.330Z,17.87
2023-05-09T15:05:25.048Z,18.24
2023-05-09T15:07:53.099Z,18.31
2023-05-09T15:10:19.987Z,18.56
2023-05-09T15:12:52.452Z,18.42
2023-05-09T15:15:24.123Z,18.46
2023-05-09T15:17:53.520Z,18.58
2023-05-09T15:20:20.933Z,18.65
2023-05-09T15:22:53.033Z,18.38
2023-05-09T15:25:20.466Z,18.52
2023-05-09T15:27:46.955Z,18.53
2023-05-09T15:30:14.352Z,18.62
2023-05-09T15:32:42.125Z,18.58
2023-05-09T15:35:09.371Z,18.31
2023-05-09T15:37:36.588Z,18.42
2023-05-09T15:40:11.544Z,18.47
2023-05-09T15:42:39.052Z,18.50
2023-05-09T15:45:06.803Z,18.65
2023-05-09T15:47:33.511Z,18.74
2023-05-09T15:50:00.085Z,18.66
2023-05-09T15:52:27.686Z,18.73
2023-05-09T15:54:56.304Z,18.32
2023-05-09T15:57:23.137Z,18.58
2023-05-09T15:59:49.703Z,18.71
2023-05-09T16:02:16.219Z,18.70
2023-05-09T16:04:44.332Z,18.39
2023-05-09T16:07:11.485Z,18.43
2023-05-09T16:09:38.241Z,18.31
2023-05-09T16:12:05.478Z,18.51
2023-05-09T16:14:32.027Z,18.53
2023-05-09T16:16:58.750Z,18.45
2023-05-09T16:19:25.511Z,18.39
2023-05-09T16:21:52.693Z,18.20
2023-05-09T16:24:20.047Z,18.25
2023-05-09T16:26:46.854Z,18.29
2023-05-09T16:29:13.893Z,18.09
2023-05-09T16:31:40.939Z,18.13
2023-05-09T16:34:08.034Z,18.13
2023-05-09T16:36:37.132Z,18.02
2023-05-09T16:39:03.751Z,17.92
2023-05-09T16:41:32.904Z,17.94
2023-05-09T16:44:04.114Z,17.93
2023-05-09T16:46:31.469Z,17.90
2023-05-09T16:48:57.906Z,17.96
2023-05-09T16:51:24.569Z,17.83
2023-05-09T16:53:51.165Z,17.78
2023-05-09T16:56:17.891Z,17.95
2023-05-09T16:58:45.165Z,17.72
2023-05-09T17:01:12.021Z,17.71
2023-05-09T17:03:43.554Z,17.80
2023-05-09T17:06:10.304Z,17.85
2023-05-09T17:08:36.851Z,17.73
2023-05-09T17:11:11.179Z,17.86
2023-05-09T17:13:42.643Z,17.85
2023-05-09T17:16:09.198Z,17.80
2023-05-09T17:18:37.934Z,17.69
2023-05-09T17:21:06.498Z,17.65
2023-05-09T17:23:32.949Z,17.33
2023-05-09T17:25:59.559Z,17.49
2023-05-09T17:28:25.988Z,17.52
2023-05-09T17:30:52.595Z,17.46
2023-05-09T17:33:19.307Z,17.23
2023-05-09T17:35:49.314Z,17.05
2023-05-09T17:38:15.772Z,16.89
2023-05-09T17:40:42.290Z,16.63
2023-05-09T17:43:08.976Z,16.68
2023-05-09T17:45:35.906Z,16.39
2023-05-09T17:48:02.920Z,16.54
2023-05-09T17:50:29.592Z,16.43
2023-05-09T17:52:57.012Z,16.29
2023-05-09T17:55:23.616Z,16.13
2023-05-09T17:57:50.132Z,15.99
2023-05-09T18:00:17.263Z,16.21
2023-05-09T18:02:45.047Z,16.07
2023-05-09T18:05:11.597Z,15.97
2023-05-09T18:07:40.036Z,16.13
2023-05-09T18:10:08.749Z,16.28
2023-05-09T18:12:37.214Z,15.87
2023-05-09T18:15:05.811Z,16.14
2023-05-09T18:17:32.390Z,15.81
2023-05-09T18:19:58.783Z,15.75
2023-05-09T18:22:25.526Z,15.91
2023-05-09T18:24:53.010Z,15.80
2023-05-09T18:27:19.508Z,15.72
2023-05-09T18:29:47.423Z,15.99
2023-05-09T18:32:14.482Z,15.91
2023-05-09T18:34:41.573Z,15.97
2023-05-09T18:37:10.040Z,16.01
2023-05-09T18:39:36.630Z,16.01
2023-05-09T18:42:03.228Z,15.76
2023-05-09T18:44:30.035Z,15.74
2023-05-09T18:46:57.848Z,15.58
2023-05-09T18:49:26.191Z,15.74
2023-05-09T18:51:53.322Z,15.78
2023-05-09T18:54:19.815Z,15.69
2023-05-09T18:56:46.710Z,15.59
2023-05-09T18:59:16.124Z,15.76
2023-05-09T19:01:43.958Z,15.67
2023-05-09T19:04:10.889Z,15.60
2023-05-09T19:06:37.715Z,15.41
2023-05-09T19:09:04.736Z,15.49
2023-05-09T19:11:31.610Z,15.37
2023-05-09T19:13:58.300Z,15.31
2023-05-09T19:16:26.497Z,15.52
2023-05-09T19:18:57.370Z,15.37
2023-05-09T19:21:25.616Z,15.60
2023-05-09T19:23:53.238Z,15.39
2023-05-09T19:26:21.847Z,15.56
2023-05-09T19:28:48.864Z,15.68
2023-05-09T19:31:16.580Z,15.58
2023-05-09T19:33:45.849Z,15.00
2023-05-09T19:36:13.694Z,15.13
2023-05-09T19:38:40.663Z,15.07
2023-05-09T19:41:07.573Z,15.25
2023-05-09T19:43:34.486Z,15.18
2023-05-09T19:46:01.241Z,15.16
2023-05-09T19:48:28.172Z,15.47
2023-05-09T19:50:58.650Z,14.91
2023-05-09T19:53:25.692Z,15.29
2023-05-09T19:55:52.998Z,15.46
2023-05-09T19:58:20.025Z,15.48
2023-05-09T20:00:46.850Z,15.36
2023-05-09T20:03:13.706Z,15.37
2023-05-09T20:05:40.492Z,15.53
2023-05-09T20:08:07.585Z,15.60
2023-05-09T20:10:34.374Z,15.58
2023-05-09T20:13:01.254Z,15.49
2023-05-09T20:15:28.124Z,15.36
2023-05-09T20:17:54.902Z,15.50
2023-05-09T20:20:21.755Z,15.48
2023-05-09T20:22:48.613Z,15.46
2023-05-09T20:25:15.407Z,15.34
2023-05-09T20:27:42.020Z,15.31
2023-05-09T20:30:09.275Z,15.51
2023-05-09T20:32:35.844Z,15.46
2023-05-09T20:35:02.775Z,15.38
2023-05-09T20:37:29.312Z,15.14
2023-05-09T20:39:55.873Z,15.13
2023-05-09T20:42:23.188Z,15.16
2023-05-09T20:44:51.393Z,15.25
2023-05-09T20:47:17.945Z,15.25
2023-05-09T20:49:44.506Z,15.07
2023-05-09T20:52:11.103Z,15.05
2023-05-09T20:54:37.714Z,14.98
2023-05-09T20:57:04.205Z,15.18
2023-05-09T20:59:30.835Z,15.25
2023-05-09T21:01:57.425Z,15.23
2023-05-09T21:04:24.155Z,15.08
2023-05-09T21:06:50.629Z,15.12
2023-05-09T21:09:17.367Z,15.22
2023-05-09T21:11:43.856Z,15.25
2023-05-09T21:14:10.388Z,15.37
2023-05-09T21:16:37.388Z,15.17
2023-05-09T21:19:05.148Z,15.03
2023-05-09T21:21:33.787Z,14.81
2023-05-09T21:24:04.118Z,14.95
2023-05-09T21:26:30.826Z,14.92
2023-05-09T21:28:57.308Z,14.76
2023-05-09T21:31:23.917Z,14.76
2023-05-09T21:33:50.452Z,14.76
2023-05-09T21:36:16.918Z,14.77
2023-05-09T21:38:43.402Z,14.55
2023-05-09T21:41:10.165Z,14.68
2023-05-09T21:43:37.408Z,14.58
2023-05-09T21:46:05.918Z,14.70
2023-05-09T21:48:32.762Z,14.64
2023-05-09T21:51:03.880Z,14.36
2023-05-09T21:53:30.417Z,14.52
2023-05-09T21:55:56.924Z,14.46
2023-05-09T21:58:23.439Z,14.42
2023-05-09T22:00:50.076Z,14.26
2023-05-09T22:03:16.744Z,14.11
2023-05-09T22:05:43.463Z,14.11
2023-05-09T22:08:09.986Z,14.37
2023-05-09T22:10:37.576Z,14.13
2023-05-09T22:13:04.145Z,14.18
2023-05-09T22:15:30.946Z,14.17
2023-05-09T22:17:57.458Z,14.18
2023-05-09T22:20:24.229Z,14.15
2023-05-09T22:22:50.730Z,14.04
2023-05-09T22:25:17.608Z,13.91
2023-05-09T22:27:44.069Z,13.92
2023-05-09T22:30:12.397Z,14.14
2023-05-09T22:32:39.645Z,14.03
2023-05-09T22:35:06.890Z,14.16
2023-05-09T22:37:33.461Z,14.13
2023-05-09T22:40:01.485Z,13.94
2023-05-09T22:42:29.303Z,13.87
2023-05-09T22:44:55.924Z,13.72
2023-05-09T22:47:22.382Z,13.85
2023-05-09T22:49:50.517Z,13.87
2023-05-09T22:52:17.379Z,14.10
2023-05-09T22:54:44.103Z,13.93
2023-05-09T22:57:11.040Z,13.89
2023-05-09T22:59:37.662Z,14.02
2023-05-09T23:02:04.788Z,13.88
2023-05-09T23:04:31.305Z,13.76
2023-05-09T23:06:57.758Z,13.90
2023-05-09T23:09:24.295Z,13.87
2023-05-09T23:11:51.467Z,13.92
2023-05-09T23:14:18.141Z,13.85
2023-05-09T23:16:45.643Z,13.78
2023-05-09T23:19:12.154Z,13.68
2023-05-09T23:21:38.622Z,13.70
2023-05-09T23:24:05.498Z,13.61
2023-05-09T23:26:32.839Z,13.53
2023-05-09T23:28:59.305Z,13.50
2023-05-09T23:31:25.938Z,13.54
2023-05-09T23:33:52.361Z,13.29
2023-05-09T23:36:18.986Z,13.46
2023-05-09T23:38:45.509Z,13.49
2023-05-09T23:41:12.809Z,13.50
2023-05-09T23:43:39.432Z,13.73
2023-05-09T23:46:05.994Z,13.52
2023-05-09T23:48:32.504Z,13.54
2023-05-09T23:50:59.070Z,13.50
2023-05-09T23:53:26.111Z,13.50
2023-05-09T23:55:52.617Z,13.50
2023-05-09T23:58:19.056Z,13.19
